Hauptseite
METAR-TAF:

METAR-TAF

Flughäfen :

Flughafen Tunis

Tunis, Tunesien

Breite: 36-50N, Länge: 010-14E, Höhe: 3 m

Beobachtung

Neuester Wetterbericht von vor 26 Minuten, um 01:30 UTC
Wind 4 kt aus West/Südwest
Temperatur 13°C
Luftfeuchtigkeit 82%
Luftdruck 1022 hPa
Sichtweite 10 km oder mehr
Durchbrochene Bewölkung in der Höhe von 2300 ft

METAR: DTTA 160130Z 24004KT 9999 BKN023 13/10 Q1022 NOSIG

Zeit: 02:56 (01:56 UTC)

Prognose

Neuester Wetterbericht von vor 2 Stunden und 56 Minuten, um 23:00 UTC
Gültige Prognose vom 16 um 00 UTC bis 16 um 24 UTC
Wind 5 kt aus West
Sichtweite 10 km oder mehr
Durchbrochene Bewölkung in der Höhe von 2600 ft
Übergehend zu
vom 16 um 08 UTC bis 16 um 10 UTC
Wind 10 kt aus Südwest
Übergehend zu
vom 16 um 18 UTC bis 16 um 20 UTC
Wind 5 kt aus Süd

TAF: DTTA 152300Z 1600/1624 27005KT 9999 BKN026 BECMG 1608/1610 22010KT BECMG 1618/1620 18005KT

Wetterbeobachtungen und Prognosen von mehr als 4000 Flughäfen (METAR und TAF Bericht).

Die verfügbaren Stationen werden durch gelbe und rote Markierungen auf der Karte dargestellt.

Führen Sie die Maus auf sie, um den Namen der Station zu sehen.

Darauf klicken, um die Beobachtung von Wetterbeobachtungen und Prognosen zu sehen.

Um die Karte zu ändern : klicken Sie auf den grünen Tasten mit einem schwarzen Kreuz Zum Vergrößern, auf den grünen Button mit einem Gedankenstrich zu verkleinern, oder auf die grünen Pfeile für benachbarte Karten.


METAR-TAF: